Portada
METAR-TAF:

METAR-TAF

Aeroports :

Djibouti, Djibouti

latitud: 11-33N, longitud: 043-10E, altitud: 49 m

Observació

L'informe es va fer fa 9 hores i 48 minuts, a les 17:00 UTC
Vent 4 kt del Nord/Nord-Oest
Temperatura 36°C
Humitat 45%
Pressió 1003 hPa
Visibilitat: 8000 m
Cel clar
calitja

METAR: HDAM 191700Z 34004KT 8000 HZ SKC 36/22 Q1003

Hora: 05:48 (02:48 UTC)

Pronòstic

L'informe es va fer fa 3 hores i 48 minuts, a les 23:00 UTC
Pronòstic vàlid del 20 a les 00 UTC al 20 a les 24 UTC
Vent 3 kt amb direcció variable
Visibilitat: 8000 m
calitja
Evolucionant progressivament
l' 20 a les 06 UTC al 20 a les 12 UTC
Vent 10 kt del Oest amb ràfegues de 20 kt
Visibilitat: 6000 m
Evolucionant progressivament
l' 20 a les 12 UTC al 20 a les 15 UTC
Vent 10 kt del Est

TAF: HDAM 192300Z 2000/2024 VRB03KT 8000 HZ NSC BECMG 2006/2012 28010G20KT 6000 BLDU/HZ NSC BECMG 2012/2015 08010KT

Observacions i pronòstics meteorològics de més de 4000 aeroports (METAR i TAF).

Les estacions disponibles són els punts grocs i vermells al mapa.

Posi el ratolí al punt desitjat per veure el nom de l'estació.

Feu clic per veure les observacions i els pronòstics meteorològics.

Per canviar el mapa: feu clic els botons verds amb una creu de color negre per apropar; al botó verd amb un guió per allunyar la imatge; o en les fletxes verdes per a mapes adjacents.


METAR-TAF: